createdAt,value
2022-10-04T00:01:33.373Z,10.93
2022-10-04T00:04:32.539Z,10.93
2022-10-04T00:07:06.453Z,10.92
2022-10-04T00:09:43.220Z,10.92
2022-10-04T00:12:22.753Z,10.94
2022-10-04T00:14:53.694Z,10.99
2022-10-04T00:17:24.223Z,11.01
2022-10-04T00:19:53.522Z,11.01
2022-10-04T00:22:23.129Z,11.01
2022-10-04T00:25:20.342Z,11.02
2022-10-04T00:28:15.828Z,11.00
2022-10-04T00:30:43.837Z,10.97
2022-10-04T00:33:12.042Z,10.94
2022-10-04T00:35:40.112Z,10.95
2022-10-04T00:38:07.981Z,10.95
2022-10-04T00:41:04.414Z,10.94
2022-10-04T00:43:43.545Z,10.90
2022-10-04T00:46:23.415Z,10.84
2022-10-04T00:49:06.277Z,10.83
2022-10-04T00:51:46.790Z,10.79
2022-10-04T00:54:26.433Z,10.78
2022-10-04T00:57:11.500Z,10.76
2022-10-04T00:59:46.873Z,10.72
2022-10-04T01:02:17.911Z,10.71
2022-10-04T01:05:07.132Z,10.70
2022-10-04T01:07:48.001Z,10.65
2022-10-04T01:10:21.499Z,10.64
2022-10-04T01:13:24.898Z,10.64
2022-10-04T01:16:02.078Z,10.67
2022-10-04T01:18:33.335Z,10.68
2022-10-04T01:21:19.815Z,10.68
2022-10-04T01:24:16.058Z,10.63
2022-10-04T01:26:45.672Z,10.59
2022-10-04T01:29:26.991Z,10.58
2022-10-04T01:31:58.521Z,10.59
2022-10-04T01:34:29.378Z,10.60
2022-10-04T01:37:00.451Z,10.58
2022-10-04T01:39:29.375Z,10.57
2022-10-04T01:42:20.788Z,10.57
2022-10-04T01:44:58.232Z,10.59
2022-10-04T01:47:43.786Z,10.58
2022-10-04T01:50:23.810Z,10.58
2022-10-04T01:52:56.745Z,10.55
2022-10-04T01:55:29.486Z,10.56
2022-10-04T01:58:11.822Z,10.55
2022-10-04T02:00:46.446Z,10.55
2022-10-04T02:03:24.990Z,10.52
2022-10-04T02:05:59.043Z,10.51
2022-10-04T02:08:33.146Z,10.51
2022-10-04T02:11:03.348Z,10.47
2022-10-04T02:13:41.663Z,10.45
2022-10-04T02:16:12.178Z,10.44
2022-10-04T02:18:43.742Z,10.42
2022-10-04T02:21:14.630Z,10.41
2022-10-04T02:23:44.066Z,10.39
2022-10-04T02:26:12.580Z,10.37
2022-10-04T02:28:41.270Z,10.31
2022-10-04T02:31:28.654Z,10.26
2022-10-04T02:33:59.326Z,10.23
2022-10-04T02:36:29.759Z,10.22
2022-10-04T02:39:08.877Z,10.19
2022-10-04T02:42:04.192Z,10.13
2022-10-04T02:45:00.215Z,10.11
2022-10-04T02:47:37.251Z,10.09
2022-10-04T02:50:16.940Z,10.06
2022-10-04T02:52:48.716Z,10.05
2022-10-04T02:55:28.026Z,10.03
2022-10-04T02:57:58.414Z,10.02
2022-10-04T03:00:29.341Z,10.03
2022-10-04T03:03:21.840Z,10.02
2022-10-04T03:06:04.659Z,10.01
2022-10-04T03:08:56.138Z,9.98
2022-10-04T03:11:30.161Z,9.97
2022-10-04T03:14:00.202Z,9.98
2022-10-04T03:16:35.544Z,9.99
2022-10-04T03:19:04.514Z,10.00
2022-10-04T03:21:33.732Z,10.01
2022-10-04T03:24:04.214Z,10.01
2022-10-04T03:26:48.620Z,9.97
2022-10-04T03:29:19.304Z,9.97
2022-10-04T03:31:49.506Z,9.96
2022-10-04T03:34:32.355Z,9.95
2022-10-04T03:37:01.888Z,9.95
2022-10-04T03:39:40.301Z,9.97
2022-10-04T03:42:16.460Z,9.96
2022-10-04T03:44:46.587Z,9.94
2022-10-04T03:47:19.900Z,9.97
2022-10-04T03:49:51.033Z,10.00
2022-10-04T03:52:29.592Z,10.02
2022-10-04T03:55:01.672Z,10.02
2022-10-04T03:57:30.792Z,10.02
2022-10-04T04:00:00.083Z,10.03
2022-10-04T04:02:54.035Z,10.06
2022-10-04T04:05:44.875Z,10.06
2022-10-04T04:08:14.891Z,10.01
2022-10-04T04:10:48.876Z,9.99
2022-10-04T04:13:19.749Z,9.97
2022-10-04T04:15:48.524Z,9.93
2022-10-04T04:18:22.998Z,9.94
2022-10-04T04:20:53.895Z,9.93
2022-10-04T04:23:33.195Z,9.92
2022-10-04T04:26:42.564Z,9.91
2022-10-04T04:29:16.260Z,9.88
2022-10-04T04:31:52.155Z,9.85
2022-10-04T04:34:21.415Z,9.82
2022-10-04T04:36:49.283Z,9.84
2022-10-04T04:39:34.716Z,9.86
2022-10-04T04:42:29.650Z,9.84
2022-10-04T04:45:26.992Z,9.85
2022-10-04T04:48:00.213Z,9.85
2022-10-04T04:50:37.597Z,9.84
2022-10-04T04:53:09.864Z,9.83
2022-10-04T04:56:02.307Z,9.83
2022-10-04T04:58:35.450Z,9.86
2022-10-04T05:01:26.549Z,9.87
2022-10-04T05:04:05.029Z,9.88
2022-10-04T05:06:34.732Z,9.90
2022-10-04T05:09:05.066Z,9.92
2022-10-04T05:11:38.895Z,9.94
2022-10-04T05:14:11.136Z,9.93
2022-10-04T05:16:48.778Z,9.93
2022-10-04T05:19:26.019Z,9.96
2022-10-04T05:21:56.754Z,9.97
2022-10-04T05:24:40.789Z,9.99
2022-10-04T05:27:19.923Z,10.00
2022-10-04T05:30:07.031Z,10.01
2022-10-04T05:32:48.728Z,10.00
2022-10-04T05:35:21.899Z,10.02
2022-10-04T05:38:09.240Z,10.06
2022-10-04T05:40:46.095Z,10.05
2022-10-04T05:43:31.941Z,10.06
2022-10-04T05:46:21.717Z,10.12
2022-10-04T05:48:54.690Z,10.15
2022-10-04T05:51:27.888Z,10.18
2022-10-04T05:54:00.442Z,10.17
2022-10-04T05:56:41.512Z,10.19
2022-10-04T05:59:38.050Z,10.25
2022-10-04T06:02:17.998Z,10.26
2022-10-04T06:05:08.456Z,10.29
2022-10-04T06:08:08.431Z,10.33
2022-10-04T06:10:57.689Z,10.36
2022-10-04T06:13:52.565Z,10.42
2022-10-04T06:16:28.771Z,10.42
2022-10-04T06:19:32.145Z,10.41
2022-10-04T06:22:20.699Z,10.41
2022-10-04T06:25:05.248Z,10.44
2022-10-04T06:27:45.406Z,10.42
2022-10-04T06:30:16.261Z,10.41
2022-10-04T06:32:56.293Z,10.41
2022-10-04T06:35:51.360Z,10.40
2022-10-04T06:38:44.643Z,10.40
2022-10-04T06:41:34.340Z,10.37
2022-10-04T06:44:31.493Z,10.37
2022-10-04T06:47:05.416Z,10.39
2022-10-04T06:49:50.408Z,10.39
2022-10-04T06:52:49.465Z,10.39
2022-10-04T06:55:35.462Z,10.35
2022-10-04T06:58:13.048Z,10.38
2022-10-04T07:01:09.063Z,10.40
2022-10-04T07:03:51.335Z,10.43
2022-10-04T07:06:47.615Z,10.47
2022-10-04T07:09:22.233Z,10.48
2022-10-04T07:11:58.605Z,10.48
2022-10-04T07:14:35.760Z,10.48
2022-10-04T07:17:12.669Z,10.46
2022-10-04T07:19:46.571Z,10.47
2022-10-04T07:22:40.118Z,10.50
2022-10-04T07:25:30.776Z,10.55
2022-10-04T07:28:29.389Z,10.54
2022-10-04T07:31:10.336Z,10.54
2022-10-04T07:33:48.404Z,10.55
2022-10-04T07:36:22.894Z,10.56
2022-10-04T07:38:56.099Z,10.53
2022-10-04T07:41:35.349Z,10.50
2022-10-04T07:44:12.224Z,10.53
2022-10-04T07:46:48.311Z,10.53
2022-10-04T07:49:19.309Z,10.56
2022-10-04T07:52:05.517Z,10.57
2022-10-04T07:54:42.599Z,10.57
2022-10-04T07:57:59.212Z,10.60
2022-10-04T08:00:54.109Z,10.67
2022-10-04T08:03:41.026Z,10.71
2022-10-04T08:06:12.523Z,10.75
2022-10-04T08:09:18.350Z,10.79
2022-10-04T08:12:23.466Z,10.85
2022-10-04T08:15:15.092Z,10.88
2022-10-04T08:17:51.454Z,10.93
2022-10-04T08:20:37.246Z,10.99
2022-10-04T08:23:20.775Z,11.03
2022-10-04T08:26:02.977Z,11.08
2022-10-04T08:28:55.483Z,11.12
2022-10-04T08:31:35.385Z,11.19
2022-10-04T08:34:31.213Z,11.26
2022-10-04T08:37:11.927Z,11.30
2022-10-04T08:40:24.150Z,11.30
2022-10-04T08:43:20.396Z,11.37
2022-10-04T08:46:26.630Z,11.47
2022-10-04T08:49:16.653Z,11.55
2022-10-04T08:52:22.504Z,11.70
2022-10-04T08:55:02.132Z,11.81
2022-10-04T08:58:07.498Z,11.90
2022-10-04T09:00:48.969Z,12.00
2022-10-04T09:03:28.617Z,12.06
2022-10-04T09:06:08.568Z,12.13
2022-10-04T09:09:35.011Z,12.10
2022-10-04T09:12:32.114Z,12.11
2022-10-04T09:15:22.556Z,12.17
2022-10-04T09:18:30.499Z,12.16
2022-10-04T09:21:28.002Z,12.21
2022-10-04T09:24:21.265Z,12.29
2022-10-04T09:27:01.636Z,12.34
2022-10-04T09:29:50.521Z,12.33
2022-10-04T09:32:21.254Z,12.31
2022-10-04T09:35:19.712Z,12.38
2022-10-04T09:37:59.560Z,12.43
2022-10-04T09:40:36.512Z,12.49
2022-10-04T09:43:07.550Z,12.58
2022-10-04T09:46:08.249Z,12.66
2022-10-04T09:48:44.278Z,12.77
2022-10-04T09:51:25.443Z,12.89
2022-10-04T09:54:12.059Z,12.97
2022-10-04T09:56:52.008Z,12.99
2022-10-04T09:59:22.136Z,13.02
2022-10-04T10:02:28.335Z,13.05
2022-10-04T10:05:25.135Z,13.12
2022-10-04T10:08:11.228Z,13.12
2022-10-04T10:11:21.491Z,13.16
2022-10-04T10:14:40.019Z,13.09
2022-10-04T10:17:10.958Z,13.03
2022-10-04T10:19:41.816Z,13.08
2022-10-04T10:22:22.262Z,13.14
2022-10-04T10:25:31.651Z,13.22
2022-10-04T10:28:30.577Z,13.33
2022-10-04T10:31:23.360Z,13.37
2022-10-04T10:34:29.015Z,13.40
2022-10-04T10:37:24.737Z,13.42
2022-10-04T10:40:12.793Z,13.38
2022-10-04T10:43:42.203Z,13.36
2022-10-04T10:46:35.126Z,13.45
2022-10-04T10:49:08.836Z,13.49
2022-10-04T10:51:51.689Z,13.50
2022-10-04T10:54:45.191Z,13.55
2022-10-04T10:57:34.180Z,13.61
2022-10-04T11:00:19.354Z,13.69
2022-10-04T11:03:26.402Z,13.81
2022-10-04T11:06:16.732Z,13.97
2022-10-04T11:09:12.247Z,14.01
2022-10-04T11:12:17.693Z,13.97
2022-10-04T11:15:23.472Z,13.96
2022-10-04T11:18:07.406Z,13.93
2022-10-04T11:20:59.412Z,14.02
2022-10-04T11:23:54.389Z,14.07
2022-10-04T11:26:57.310Z,14.13
2022-10-04T11:29:33.630Z,14.31
2022-10-04T11:32:01.647Z,14.47
2022-10-04T11:34:51.017Z,14.50
2022-10-04T11:37:34.248Z,14.52
2022-10-04T11:40:31.982Z,14.54
2022-10-04T11:43:18.509Z,14.50
2022-10-04T11:46:12.637Z,14.50
2022-10-04T11:48:53.874Z,14.48
2022-10-04T11:51:47.943Z,14.46
2022-10-04T11:54:37.739Z,14.44
2022-10-04T11:57:47.176Z,14.49
2022-10-04T12:00:21.070Z,14.53
2022-10-04T12:03:29.319Z,14.49
2022-10-04T12:06:23.882Z,14.51
2022-10-04T12:09:05.755Z,14.59
2022-10-04T12:12:16.245Z,14.70
2022-10-04T12:15:08.686Z,14.82
2022-10-04T12:17:57.852Z,14.96
2022-10-04T12:20:40.950Z,15.06
2022-10-04T12:23:31.178Z,15.08
2022-10-04T12:26:45.906Z,14.99
2022-10-04T12:29:29.159Z,14.97
2022-10-04T12:32:24.748Z,15.00
2022-10-04T12:35:19.623Z,14.95
2022-10-04T12:38:02.580Z,14.91
2022-10-04T12:40:48.396Z,14.83
2022-10-04T12:43:33.297Z,14.77
2022-10-04T12:46:13.648Z,14.68
2022-10-04T12:49:10.343Z,14.63
2022-10-04T12:51:58.813Z,14.61
2022-10-04T12:54:35.317Z,14.62
2022-10-04T12:57:06.611Z,14.66
2022-10-04T12:59:46.818Z,14.75
2022-10-04T13:02:26.837Z,14.82
2022-10-04T13:05:02.514Z,14.84
2022-10-04T13:07:58.735Z,14.85
2022-10-04T13:10:59.534Z,14.86
2022-10-04T13:13:48.698Z,14.91
2022-10-04T13:19:50.453Z,15.08
2022-10-04T13:22:57.268Z,15.08
2022-10-04T13:25:47.373Z,15.05
2022-10-04T13:28:41.460Z,15.07
2022-10-04T13:31:34.955Z,15.09
2022-10-04T13:34:14.793Z,15.11
2022-10-04T13:36:52.073Z,15.23
2022-10-04T13:39:53.790Z,15.37
2022-10-04T13:42:51.557Z,15.49
2022-10-04T13:45:53.252Z,15.64
2022-10-04T13:48:31.016Z,15.70
2022-10-04T13:51:17.271Z,15.68
2022-10-04T13:54:36.274Z,15.45
2022-10-04T13:57:18.570Z,15.11
2022-10-04T13:59:59.915Z,14.81
2022-10-04T14:03:02.920Z,14.58
2022-10-04T14:05:49.862Z,14.28
2022-10-04T14:08:36.829Z,14.07
2022-10-04T14:11:23.992Z,13.85
2022-10-04T14:13:55.755Z,13.71
2022-10-04T14:16:39.011Z,13.62
2022-10-04T14:19:28.315Z,13.50
2022-10-04T14:22:41.779Z,13.41
2022-10-04T14:25:54.703Z,13.29
2022-10-04T14:29:00.047Z,13.20
2022-10-04T14:31:47.260Z,13.12
2022-10-04T14:34:39.095Z,13.02
2022-10-04T14:37:28.158Z,12.93
2022-10-04T14:40:07.940Z,12.89
2022-10-04T14:42:46.752Z,12.83
2022-10-04T14:45:24.656Z,12.80
2022-10-04T14:48:12.036Z,12.76
2022-10-04T14:51:03.059Z,12.74
2022-10-04T14:53:49.939Z,12.69
2022-10-04T14:56:59.096Z,12.69
2022-10-04T14:59:58.995Z,12.65
2022-10-04T15:02:33.342Z,12.63
2022-10-04T15:05:37.789Z,12.57
2022-10-04T15:08:20.993Z,12.54
2022-10-04T15:10:53.772Z,12.55
2022-10-04T15:13:36.704Z,12.52
2022-10-04T15:16:17.923Z,12.52
2022-10-04T15:19:03.849Z,12.51
2022-10-04T15:22:00.232Z,12.50
2022-10-04T15:24:44.631Z,12.48
2022-10-04T15:27:27.878Z,12.47
2022-10-04T15:30:20.321Z,12.44
2022-10-04T15:33:12.560Z,12.40
2022-10-04T15:35:58.965Z,12.39
2022-10-04T15:38:35.826Z,12.36
2022-10-04T15:41:22.336Z,12.32
2022-10-04T15:44:12.752Z,12.31
2022-10-04T15:47:09.077Z,12.30
2022-10-04T15:49:43.072Z,12.27
2022-10-04T15:52:21.495Z,12.23
2022-10-04T15:55:25.474Z,12.21
2022-10-04T15:58:15.971Z,12.22
2022-10-04T16:01:00.157Z,12.18
2022-10-04T16:03:41.435Z,12.15
2022-10-04T16:06:23.984Z,12.10
2022-10-04T16:09:14.056Z,12.06
2022-10-04T16:11:51.103Z,12.01
2022-10-04T16:14:37.300Z,11.97
2022-10-04T16:17:34.660Z,11.94
2022-10-04T16:20:20.938Z,11.90
2022-10-04T16:23:25.413Z,11.85
2022-10-04T16:26:05.559Z,11.80
2022-10-04T16:29:01.559Z,11.76
2022-10-04T16:31:50.489Z,11.72
2022-10-04T16:34:45.563Z,11.67
2022-10-04T16:37:39.602Z,11.64
2022-10-04T16:40:12.644Z,11.60
2022-10-04T16:42:55.422Z,11.56
2022-10-04T16:45:39.823Z,11.53
2022-10-04T16:48:23.524Z,11.52
2022-10-04T16:51:16.348Z,11.49
2022-10-04T16:54:05.211Z,11.45
2022-10-04T16:56:57.318Z,11.40
2022-10-04T16:59:37.039Z,11.39
2022-10-04T17:02:34.135Z,11.40
2022-10-04T17:05:22.850Z,11.38
2022-10-04T17:07:56.698Z,11.34
2022-10-04T17:10:48.995Z,11.33
2022-10-04T17:13:43.863Z,11.34
2022-10-04T17:16:16.653Z,11.35
2022-10-04T17:19:10.509Z,11.33
2022-10-04T17:21:48.863Z,11.28
2022-10-04T17:24:17.059Z,11.20
2022-10-04T17:27:00.771Z,11.15
2022-10-04T17:29:37.773Z,11.12
2022-10-04T17:32:17.473Z,11.06
2022-10-04T17:35:16.866Z,11.05
2022-10-04T17:38:07.912Z,11.00
2022-10-04T17:40:54.215Z,10.93
2022-10-04T17:43:41.284Z,10.89
2022-10-04T17:46:21.885Z,10.84
2022-10-04T17:49:20.908Z,10.81
2022-10-04T17:52:14.702Z,10.77
2022-10-04T17:55:10.878Z,10.76
2022-10-04T17:57:45.319Z,10.74
2022-10-04T18:00:16.695Z,10.70
2022-10-04T18:03:02.342Z,10.71
2022-10-04T18:05:31.076Z,10.66
2022-10-04T18:08:04.677Z,10.62
2022-10-04T18:10:38.686Z,10.62
2022-10-04T18:13:19.351Z,10.58
2022-10-04T18:15:58.103Z,10.55
2022-10-04T18:18:30.919Z,10.53
2022-10-04T18:21:05.236Z,10.48
2022-10-04T18:23:54.094Z,10.42
2022-10-04T18:26:24.539Z,10.38
2022-10-04T18:28:54.253Z,10.36
2022-10-04T18:31:41.273Z,10.33
2022-10-04T18:34:18.102Z,10.29
2022-10-04T18:36:52.923Z,10.26
2022-10-04T18:39:24.377Z,10.22
2022-10-04T18:42:01.127Z,10.22
2022-10-04T18:44:44.488Z,10.21
2022-10-04T18:47:25.300Z,10.22
2022-10-04T18:49:54.706Z,10.19
2022-10-04T18:52:55.892Z,10.19
2022-10-04T18:55:41.682Z,10.13
2022-10-04T18:58:55.591Z,10.13
2022-10-04T19:01:42.593Z,10.12
2022-10-04T19:04:34.458Z,10.08
2022-10-04T19:07:29.250Z,10.06
2022-10-04T19:10:01.176Z,10.01
2022-10-04T19:12:36.486Z,10.00
2022-10-04T19:15:29.584Z,10.01
2022-10-04T19:18:48.451Z,9.96
2022-10-04T19:21:34.136Z,9.92
2022-10-04T19:24:31.181Z,9.90
2022-10-04T19:27:26.805Z,9.86
2022-10-04T19:30:19.883Z,9.84
2022-10-04T19:33:13.947Z,9.84
2022-10-04T19:35:57.738Z,9.80
2022-10-04T19:38:51.966Z,9.74
2022-10-04T19:41:32.324Z,9.71
2022-10-04T19:44:00.189Z,9.71
2022-10-04T19:46:43.671Z,9.67
2022-10-04T19:49:32.166Z,9.67
2022-10-04T19:52:29.112Z,9.63
2022-10-04T19:55:04.140Z,9.62
2022-10-04T19:57:38.178Z,9.62
2022-10-04T20:00:12.932Z,9.60
2022-10-04T20:02:48.137Z,9.58
2022-10-04T20:05:24.989Z,9.56
2022-10-04T20:08:05.469Z,9.55
2022-10-04T20:10:36.417Z,9.50
2022-10-04T20:13:06.110Z,9.50
2022-10-04T20:15:35.013Z,9.46
2022-10-04T20:18:22.889Z,9.39
2022-10-04T20:20:53.738Z,9.34
2022-10-04T20:23:40.278Z,9.31
2022-10-04T20:26:53.650Z,9.23
2022-10-04T20:29:38.174Z,9.17
2022-10-04T20:32:37.065Z,9.18
2022-10-04T20:35:14.101Z,9.16
2022-10-04T20:37:46.635Z,9.16
2022-10-04T20:40:23.599Z,9.18
2022-10-04T20:43:14.808Z,9.21
2022-10-04T20:45:46.259Z,9.25
2022-10-04T20:48:20.517Z,9.31
2022-10-04T20:50:52.380Z,9.29
2022-10-04T20:53:23.358Z,9.24
2022-10-04T20:56:08.273Z,9.29
2022-10-04T20:58:37.785Z,9.30
2022-10-04T21:01:31.295Z,9.25
2022-10-04T21:04:34.061Z,9.21
2022-10-04T21:07:06.168Z,9.17
2022-10-04T21:09:37.397Z,9.11
2022-10-04T21:12:07.867Z,9.07
2022-10-04T21:14:37.851Z,9.02
2022-10-04T21:17:28.202Z,8.99
2022-10-04T21:19:56.318Z,8.95
2022-10-04T21:22:29.048Z,8.94
2022-10-04T21:25:01.929Z,8.92
2022-10-04T21:27:36.803Z,8.91
2022-10-04T21:30:16.990Z,8.87
2022-10-04T21:32:45.139Z,8.86
2022-10-04T21:35:13.626Z,8.83
2022-10-04T21:37:41.532Z,8.76
2022-10-04T21:40:09.975Z,8.73
2022-10-04T21:42:37.915Z,8.68
2022-10-04T21:45:06.342Z,8.66
2022-10-04T21:47:34.143Z,8.63
2022-10-04T21:50:02.025Z,8.60
2022-10-04T21:52:30.011Z,8.64
2022-10-04T21:54:57.983Z,8.61
2022-10-04T21:57:25.875Z,8.62
2022-10-04T21:59:53.813Z,8.61
2022-10-04T22:02:21.694Z,8.59
2022-10-04T22:04:50.058Z,8.59
2022-10-04T22:07:18.028Z,8.55
2022-10-04T22:09:46.001Z,8.54
2022-10-04T22:12:13.826Z,8.54
2022-10-04T22:14:41.726Z,8.55
2022-10-04T22:17:09.592Z,8.56
2022-10-04T22:19:37.574Z,8.54
2022-10-04T22:22:05.530Z,8.52
2022-10-04T22:24:36.160Z,8.56
2022-10-04T22:27:13.244Z,8.53
2022-10-04T22:29:42.607Z,8.49
2022-10-04T22:32:23.309Z,8.46
2022-10-04T22:34:52.697Z,8.44
2022-10-04T22:37:24.761Z,8.44
2022-10-04T22:39:52.980Z,8.43
2022-10-04T22:42:24.975Z,8.44
2022-10-04T22:44:52.884Z,8.41
2022-10-04T22:47:20.959Z,8.36
2022-10-04T22:49:52.597Z,8.33
2022-10-04T22:52:23.269Z,8.33
2022-10-04T22:54:53.667Z,8.29
2022-10-04T22:57:21.642Z,8.27
2022-10-04T22:59:51.924Z,8.21
2022-10-04T23:02:30.238Z,8.19
2022-10-04T23:05:11.486Z,8.11
2022-10-04T23:07:39.619Z,8.06
2022-10-04T23:10:08.515Z,8.05
2022-10-04T23:12:37.520Z,8.08
2022-10-04T23:15:06.887Z,8.10
2022-10-04T23:17:38.913Z,8.10
2022-10-04T23:20:20.588Z,8.11
2022-10-04T23:22:51.026Z,8.11
2022-10-04T23:25:23.584Z,8.15
2022-10-04T23:27:51.540Z,8.13
2022-10-04T23:30:22.097Z,8.09
2022-10-04T23:32:53.570Z,8.06
2022-10-04T23:35:25.239Z,8.02
2022-10-04T23:37:54.838Z,8.02
2022-10-04T23:40:25.714Z,8.03
2022-10-04T23:42:56.503Z,8.06
2022-10-04T23:45:25.445Z,8.05
2022-10-04T23:47:59.159Z,8.04
2022-10-04T23:50:27.009Z,8.05
2022-10-04T23:53:02.507Z,8.04
2022-10-04T23:55:42.585Z,8.01
2022-10-04T23:58:15.849Z,7.99
